Time;durP1;ratioP1;P1;durP2;ratioP2;P2;SDS_P1;SDS_P2;PMS_P1;PMS_P2;Temp;Humidity;BMP_temperature;BMP_pressure;BME280_temperature;BME280_humidity;BME280_pressure;Samples;Min_cycle;Max_cycle;Signal;HPM_P1;HPM_P2
2021/05/20 00:02:12;;;;;;;2.28;0.50;;;8.10;99.90;;;;;;4957911;28;20665;-77
2021/05/20 00:04:38;;;;;;;3.50;0.70;;;8.20;99.90;;;;;;4955278;28;20038;-77
2021/05/20 00:07:04;;;;;;;4.38;1.30;;;8.10;99.90;;;;;;4956081;28;20071;-77
2021/05/20 00:09:30;;;;;;;2.65;0.75;;;8.10;99.90;;;;;;4952181;28;20397;-77
2021/05/20 00:11:56;;;;;;;1.55;0.40;;;8.10;99.90;;;;;;4954316;28;20116;-77
2021/05/20 00:14:22;;;;;;;2.67;0.50;;;8.10;99.90;;;;;;4953557;28;20035;-77
2021/05/20 00:16:49;;;;;;;2.47;0.40;;;8.00;99.90;;;;;;4959663;28;20547;-77
2021/05/20 00:19:15;;;;;;;2.58;0.40;;;8.00;99.90;;;;;;4951499;28;20040;-77
2021/05/20 00:21:41;;;;;;;2.47;0.50;;;7.90;99.90;;;;;;4957067;28;20041;-76
2021/05/20 00:24:07;;;;;;;3.63;1.08;;;7.90;99.90;;;;;;4951528;28;20046;-77
2021/05/20 00:26:33;;;;;;;2.78;0.80;;;7.90;99.90;;;;;;4955870;28;20027;-77
2021/05/20 00:28:59;;;;;;;3.83;1.33;;;7.80;99.90;;;;;;4953413;28;20408;-77
2021/05/20 00:31:26;;;;;;;5.57;1.73;;;7.80;99.90;;;;;;4954012;28;20500;-77
2021/05/20 00:33:51;;;;;;;7.43;2.75;;;7.80;99.90;;;;;;4955692;28;20043;-76
2021/05/20 00:36:17;;;;;;;4.32;1.92;;;7.90;99.90;;;;;;4951939;28;20033;-77
2021/05/20 00:38:43;;;;;;;4.03;1.52;;;7.90;99.90;;;;;;4957018;28;20477;-77
2021/05/20 00:41:08;;;;;;;3.38;1.00;;;8.00;99.90;;;;;;4949624;28;20093;-77
2021/05/20 00:43:34;;;;;;;5.25;1.15;;;8.10;99.90;;;;;;4955672;28;20039;-77
2021/05/20 00:46:00;;;;;;;4.55;1.25;;;8.00;99.90;;;;;;4950814;28;20035;-77
2021/05/20 00:48:26;;;;;;;6.35;0.95;;;8.10;99.90;;;;;;4954773;28;20544;-76
2021/05/20 00:50:51;;;;;;;3.33;1.10;;;8.00;99.90;;;;;;4948979;28;20050;-77
2021/05/20 00:53:17;;;;;;;4.75;1.00;;;8.00;99.90;;;;;;4955026;28;20519;-77
2021/05/20 00:55:43;;;;;;;5.30;0.70;;;8.00;99.90;;;;;;4951394;28;20039;-76
2021/05/20 00:58:09;;;;;;;3.92;0.77;;;7.90;99.90;;;;;;4956397;28;20473;-77
2021/05/20 01:00:36;;;;;;;5.25;1.00;;;7.90;99.90;;;;;;4950624;28;20106;-77
2021/05/20 01:03:02;;;;;;;4.45;0.80;;;7.90;99.90;;;;;;4950239;28;20061;-77
2021/05/20 01:05:28;;;;;;;5.85;1.10;;;7.90;99.90;;;;;;4956567;28;20469;-76
2021/05/20 01:07:54;;;;;;;7.78;1.42;;;7.80;99.90;;;;;;4958084;28;20049;-76
2021/05/20 01:10:21;;;;;;;4.75;0.80;;;7.80;99.90;;;;;;4955967;28;20519;-76
2021/05/20 01:12:46;;;;;;;3.63;1.40;;;7.70;99.90;;;;;;4953418;28;20031;-76
2021/05/20 01:15:27;;;;;;;4.72;1.90;;;7.70;99.90;;;;;;4960773;28;20035;-76
2021/05/20 01:17:57;;;;;;;5.97;2.92;;;7.70;99.90;;;;;;4952006;28;20054;-77
2021/05/20 01:20:40;;;;;;;7.45;2.05;;;7.70;99.90;;;;;;4954591;28;20042;-76
2021/05/20 01:23:13;;;;;;;5.60;1.45;;;7.80;99.90;;;;;;4953698;28;20061;-77
2021/05/20 01:25:41;;;;;;;5.18;2.22;;;7.80;99.90;;;;;;4962162;28;20046;-76
2021/05/20 01:28:09;;;;;;;5.90;2.60;;;7.90;99.90;;;;;;4968814;28;20049;-77
2021/05/20 01:30:37;;;;;;;6.32;2.33;;;7.90;99.90;;;;;;4963696;28;20041;-76
2021/05/20 01:33:03;;;;;;;3.35;1.35;;;8.00;99.90;;;;;;4964531;28;20030;-76
2021/05/20 01:35:29;;;;;;;7.63;1.25;;;8.00;99.90;;;;;;4969192;28;20035;-76
2021/05/20 01:41:04;;;;;;;3.50;1.25;;;8.00;99.90;;;;;;4953748;28;20176;-77
2021/05/20 01:43:31;;;;;;;3.63;1.52;;;8.00;99.90;;;;;;4953495;28;20038;-77
2021/05/20 01:46:00;;;;;;;5.55;1.20;;;8.00;99.90;;;;;;4952722;28;20046;-77
2021/05/20 01:48:27;;;;;;;3.17;1.40;;;8.00;99.90;;;;;;4946111;28;20061;-77
2021/05/20 01:50:58;;;;;;;4.03;1.70;;;8.10;99.90;;;;;;4972556;28;20445;-77
2021/05/20 01:53:24;;;;;;;4.43;2.33;;;8.00;99.90;;;;;;4971215;28;20039;-77
2021/05/20 01:55:50;;;;;;;6.93;3.58;;;8.00;99.90;;;;;;4966614;28;20606;-76
2021/05/20 01:58:16;;;;;;;8.32;4.25;;;8.00;99.90;;;;;;4952471;28;20090;-76
2021/05/20 02:00:42;;;;;;;5.65;3.33;;;7.90;99.90;;;;;;4953629;28;20034;-76
2021/05/20 02:03:08;;;;;;;6.80;2.55;;;7.80;99.90;;;;;;4953550;28;20485;-76
2021/05/20 02:05:33;;;;;;;5.22;2.00;;;7.80;99.90;;;;;;4952064;28;20049;-77
2021/05/20 02:07:59;;;;;;;5.70;3.13;;;7.80;99.90;;;;;;4951270;28;20038;-76
2021/05/20 02:10:24;;;;;;;10.13;3.83;;;7.90;99.90;;;;;;4953370;28;20470;-77
2021/05/20 02:12:50;;;;;;;10.07;3.85;;;7.80;99.90;;;;;;4950649;28;20062;-77
2021/05/20 02:15:16;;;;;;;5.15;2.25;;;7.80;99.90;;;;;;4955197;28;20169;-76
2021/05/20 02:17:42;;;;;;;5.57;2.42;;;7.80;99.90;;;;;;4951130;28;20050;-76
2021/05/20 02:20:08;;;;;;;5.97;2.70;;;7.80;99.90;;;;;;4971324;28;20038;-77
2021/05/20 02:22:35;;;;;;;8.40;2.78;;;7.80;99.90;;;;;;4951232;28;20031;-77
2021/05/20 02:25:01;;;;;;;6.53;4.43;;;7.90;99.90;;;;;;4960649;28;20144;-76
2021/05/20 02:27:27;;;;;;;8.93;5.25;;;7.90;99.90;;;;;;4946131;28;20399;-77
2021/05/20 02:29:52;;;;;;;6.95;4.95;;;7.90;99.90;;;;;;4962317;28;20065;-77
2021/05/20 02:32:18;;;;;;;9.15;3.70;;;7.90;99.90;;;;;;4952507;28;20145;-76
2021/05/20 02:34:44;;;;;;;4.70;2.67;;;7.90;99.90;;;;;;4958971;28;20051;-77
2021/05/20 02:37:10;;;;;;;5.40;2.70;;;7.90;99.90;;;;;;4950558;28;20038;-77
2021/05/20 02:39:35;;;;;;;4.22;2.40;;;7.90;99.90;;;;;;4963218;28;20043;-77
2021/05/20 02:42:01;;;;;;;6.97;2.67;;;7.90;99.90;;;;;;4953159;28;20038;-77
2021/05/20 02:44:27;;;;;;;4.22;2.35;;;8.00;99.90;;;;;;4958686;28;20473;-77
2021/05/20 02:46:53;;;;;;;5.50;2.50;;;8.00;99.90;;;;;;4968610;28;20148;-77
2021/05/20 02:49:18;;;;;;;6.05;3.17;;;7.90;99.90;;;;;;4951276;28;20386;-76
2021/05/20 02:51:44;;;;;;;6.28;3.22;;;7.90;99.90;;;;;;4956424;28;20070;-76
2021/05/20 02:54:10;;;;;;;9.43;5.40;;;7.90;99.90;;;;;;4974392;28;20895;-77
2021/05/20 02:56:35;;;;;;;9.02;6.15;;;7.80;99.90;;;;;;4950201;28;20424;-77
2021/05/20 02:59:01;;;;;;;6.57;3.30;;;7.80;99.90;;;;;;4956637;28;20053;-77
2021/05/20 03:01:27;;;;;;;4.82;2.75;;;7.80;99.90;;;;;;4952627;28;20034;-76
2021/05/20 03:03:53;;;;;;;5.13;2.92;;;7.70;99.90;;;;;;4958497;28;20050;-76
2021/05/20 03:06:18;;;;;;;5.50;3.10;;;7.50;99.90;;;;;;4950298;28;20384;-76
2021/05/20 03:08:44;;;;;;;6.10;3.97;;;7.50;99.90;;;;;;4958045;28;20523;-77
2021/05/20 03:11:10;;;;;;;13.60;6.43;;;7.50;99.90;;;;;;4966000;28;20110;-76
2021/05/20 03:13:35;;;;;;;13.60;4.35;;;7.60;99.90;;;;;;4955228;28;20055;-76
2021/05/20 03:16:01;;;;;;;5.63;2.78;;;7.50;99.90;;;;;;4968207;28;20350;-76
2021/05/20 03:18:27;;;;;;;3.78;1.50;;;7.50;99.90;;;;;;4950088;28;20093;-77
2021/05/20 03:20:52;;;;;;;3.50;1.80;;;7.50;99.90;;;;;;4959602;28;20105;-77
2021/05/20 03:23:18;;;;;;;4.47;1.90;;;7.50;99.90;;;;;;4963470;28;20050;-76
2021/05/20 03:25:44;;;;;;;6.45;3.55;;;7.40;99.90;;;;;;4959011;28;20553;-77
2021/05/20 03:28:09;;;;;;;5.35;2.65;;;7.50;99.90;;;;;;4949362;28;20039;-77
2021/05/20 03:30:35;;;;;;;5.78;2.17;;;7.40;99.90;;;;;;4953567;28;20039;-77
2021/05/20 03:33:01;;;;;;;5.15;2.92;;;7.40;99.90;;;;;;4963049;28;20382;-77
2021/05/20 03:35:27;;;;;;;5.00;2.70;;;7.40;99.90;;;;;;4968255;28;20401;-76
2021/05/20 03:37:52;;;;;;;5.15;2.60;;;7.40;99.90;;;;;;4952366;28;20165;-77
2021/05/20 03:40:19;;;;;;;5.97;3.28;;;7.50;99.90;;;;;;4945094;28;20035;-76
2021/05/20 03:42:45;;;;;;;5.10;2.83;;;7.50;99.90;;;;;;4952604;28;20042;-76
2021/05/20 03:45:11;;;;;;;5.13;2.63;;;7.50;99.90;;;;;;4956744;28;20057;-77
2021/05/20 03:47:39;;;;;;;4.40;2.25;;;7.50;99.90;;;;;;4946205;28;20046;-77
2021/05/20 03:50:05;;;;;;;4.43;2.50;;;7.60;99.90;;;;;;4956582;28;20039;-77
2021/05/20 03:52:31;;;;;;;6.22;2.33;;;7.60;99.90;;;;;;4947678;28;20030;-77
2021/05/20 03:54:56;;;;;;;3.95;2.03;;;7.60;99.90;;;;;;4956323;28;20045;-77
2021/05/20 03:57:22;;;;;;;4.90;2.03;;;7.60;99.90;;;;;;4951568;28;20039;-76
2021/05/20 03:59:48;;;;;;;5.53;2.38;;;7.60;99.90;;;;;;4974863;28;20081;-77
2021/05/20 04:02:13;;;;;;;10.23;3.70;;;7.50;99.90;;;;;;4951357;28;20440;-76
2021/05/20 04:04:39;;;;;;;5.93;2.22;;;7.50;99.90;;;;;;4951967;28;20515;-77
2021/05/20 04:07:05;;;;;;;6.00;2.90;;;7.60;99.90;;;;;;4950119;28;20039;-76
2021/05/20 04:09:30;;;;;;;6.13;3.25;;;7.60;99.90;;;;;;4960244;28;20035;-76
2021/05/20 04:11:56;;;;;;;6.00;3.38;;;7.70;99.90;;;;;;4968165;28;20333;-76
2021/05/20 04:14:22;;;;;;;9.77;3.95;;;7.70;99.90;;;;;;4952502;28;20042;-77
2021/05/20 04:16:47;;;;;;;13.38;10.38;;;7.70;99.90;;;;;;4951461;28;20035;-77
2021/05/20 04:19:15;;;;;;;11.55;8.55;;;7.70;99.90;;;;;;4948509;28;20105;-77
2021/05/20 04:21:41;;;;;;;13.50;8.65;;;7.70;99.90;;;;;;4964465;28;20158;-76
2021/05/20 04:24:07;;;;;;;11.20;7.63;;;7.70;99.90;;;;;;4946995;28;20100;-76
2021/05/20 04:26:33;;;;;;;7.10;5.35;;;7.80;99.90;;;;;;4949518;28;20038;-77
2021/05/20 04:28:58;;;;;;;6.40;3.08;;;7.70;99.90;;;;;;4948580;28;20042;-77
2021/05/20 04:31:24;;;;;;;6.28;2.80;;;7.80;99.90;;;;;;4958721;28;20046;-76
2021/05/20 04:33:49;;;;;;;4.68;2.55;;;7.80;99.90;;;;;;4950131;28;20480;-76
2021/05/20 04:36:15;;;;;;;5.05;2.78;;;7.80;99.90;;;;;;4958608;28;20035;-77
2021/05/20 04:38:41;;;;;;;5.13;2.97;;;7.90;99.90;;;;;;4946746;28;20057;-77
2021/05/20 04:41:07;;;;;;;5.15;3.05;;;7.90;99.90;;;;;;4950288;28;20640;-76
2021/05/20 04:43:33;;;;;;;6.43;3.40;;;7.90;99.90;;;;;;4969933;28;20396;-77
2021/05/20 04:45:59;;;;;;;6.32;2.70;;;7.90;99.90;;;;;;4949796;28;20420;-76
2021/05/20 04:48:25;;;;;;;6.20;3.13;;;7.90;99.90;;;;;;4954354;28;20133;-77
2021/05/20 04:50:51;;;;;;;6.53;3.03;;;7.90;99.90;;;;;;4946154;28;20039;-77
2021/05/20 04:53:17;;;;;;;8.35;5.25;;;8.00;99.90;;;;;;4973505;28;20504;-76
2021/05/20 04:55:42;;;;;;;8.20;6.32;;;8.00;99.90;;;;;;4952831;28;20432;-77
2021/05/20 04:58:08;;;;;;;8.90;5.70;;;8.10;99.90;;;;;;4948858;28;20035;-76
2021/05/20 05:00:34;;;;;;;13.55;5.05;;;8.10;99.90;;;;;;4952575;28;20049;-76
2021/05/20 05:02:59;;;;;;;3.97;2.33;;;8.10;99.90;;;;;;4959763;28;20038;-77
2021/05/20 05:05:25;;;;;;;5.68;2.10;;;8.10;99.90;;;;;;4951053;28;20532;-77
2021/05/20 05:07:51;;;;;;;4.63;2.33;;;8.20;99.90;;;;;;4966764;28;20454;-77
2021/05/20 05:10:16;;;;;;;11.48;6.40;;;8.20;99.90;;;;;;4950807;28;20066;-77
2021/05/20 05:12:42;;;;;;;10.52;7.10;;;8.40;99.90;;;;;;4953146;28;20041;-77
2021/05/20 05:15:08;;;;;;;10.07;7.35;;;8.40;99.90;;;;;;4951863;28;20031;-76
2021/05/20 05:17:34;;;;;;;14.70;9.23;;;8.40;99.90;;;;;;4960453;28;20098;-76
2021/05/20 05:20:00;;;;;;;10.95;5.90;;;8.30;99.90;;;;;;4952561;28;20046;-77
2021/05/20 05:22:25;;;;;;;11.13;7.20;;;8.40;99.90;;;;;;4972950;28;20643;-76
2021/05/20 05:24:51;;;;;;;12.02;8.02;;;8.40;99.90;;;;;;4957046;28;20109;-77
2021/05/20 05:27:17;;;;;;;8.82;6.00;;;8.30;99.90;;;;;;4956737;28;20057;-76
2021/05/20 05:29:44;;;;;;;16.50;7.35;;;8.40;99.90;;;;;;4957662;28;20031;-77
2021/05/20 05:32:11;;;;;;;13.30;7.72;;;8.40;99.90;;;;;;4947320;28;20031;-77
2021/05/20 05:34:37;;;;;;;11.82;7.63;;;8.50;99.90;;;;;;4951318;28;20042;-77
2021/05/20 05:37:02;;;;;;;10.23;6.30;;;8.80;99.90;;;;;;4953553;28;20384;-77
2021/05/20 05:39:28;;;;;;;8.40;5.13;;;8.90;99.90;;;;;;4957556;28;20046;-77
2021/05/20 05:41:54;;;;;;;8.20;4.93;;;9.00;99.90;;;;;;4955304;28;20130;-77
2021/05/20 05:44:20;;;;;;;8.48;5.70;;;9.00;99.90;;;;;;4955956;28;20400;-76
2021/05/20 05:46:46;;;;;;;9.75;6.38;;;9.00;99.90;;;;;;4949140;28;20031;-76
2021/05/20 05:49:37;;;;;;;8.98;6.38;;;9.10;99.90;;;;;;4968339;28;20050;-77
2021/05/20 05:52:02;;;;;;;9.10;5.50;;;9.20;99.90;;;;;;4952613;28;20049;-77
2021/05/20 05:54:27;;;;;;;12.05;7.25;;;9.20;99.90;;;;;;4945714;28;20401;-77
2021/05/20 05:56:53;;;;;;;8.32;5.72;;;9.10;99.90;;;;;;4951527;28;20184;-77
2021/05/20 05:59:19;;;;;;;11.73;8.65;;;9.00;99.90;;;;;;4967931;28;20058;-77
2021/05/20 06:01:46;;;;;;;13.98;11.25;;;8.90;99.90;;;;;;4970978;28;20041;-77
2021/05/20 06:04:14;;;;;;;7.07;3.95;;;8.80;99.90;;;;;;4955898;28;20043;-76
2021/05/20 06:06:45;;;;;;;6.55;3.20;;;8.80;99.90;;;;;;4954017;28;20484;-76
2021/05/20 06:09:11;;;;;;;4.10;2.37;;;8.80;99.90;;;;;;4959109;28;20070;-76
2021/05/20 06:11:37;;;;;;;5.88;2.03;;;8.90;99.90;;;;;;4949112;28;20033;-77
2021/05/20 06:14:06;;;;;;;7.75;5.25;;;9.00;99.90;;;;;;4953633;28;20035;-76
2021/05/20 06:16:34;;;;;;;7.75;4.30;;;9.10;99.90;;;;;;4962614;28;20027;-76
2021/05/20 06:19:01;;;;;;;5.20;2.20;;;9.10;99.90;;;;;;4950437;28;20456;-76
2021/05/20 06:21:27;;;;;;;3.83;1.67;;;9.20;99.90;;;;;;4958767;28;20038;-76
2021/05/20 06:23:52;;;;;;;4.43;1.45;;;9.20;99.90;;;;;;4964941;28;20527;-77
2021/05/20 06:26:18;;;;;;;2.88;1.55;;;9.30;99.90;;;;;;4952133;28;20517;-76
2021/05/20 06:28:44;;;;;;;6.32;1.60;;;9.20;99.90;;;;;;4968090;28;20055;-76
2021/05/20 06:31:10;;;;;;;3.67;2.13;;;9.20;99.90;;;;;;4956047;28;20133;-77
2021/05/20 06:33:35;;;;;;;8.15;4.10;;;9.20;99.90;;;;;;4969200;28;20483;-76
2021/05/20 06:36:01;;;;;;;9.65;4.20;;;9.20;99.90;;;;;;4966946;28;20339;-76
2021/05/20 06:38:27;;;;;;;7.43;2.90;;;9.20;99.90;;;;;;4953866;28;20126;-76
2021/05/20 06:40:54;;;;;;;6.93;4.28;;;9.10;99.90;;;;;;4970728;28;20039;-77
2021/05/20 06:43:20;;;;;;;9.45;4.82;;;9.30;99.90;;;;;;4951841;28;20063;-76
2021/05/20 06:45:46;;;;;;;8.63;4.88;;;9.30;99.90;;;;;;4963903;28;20566;-77
2021/05/20 06:48:16;;;;;;;4.63;2.13;;;9.40;99.90;;;;;;4955530;28;20134;-77
2021/05/20 06:50:42;;;;;;;7.43;1.88;;;9.40;99.90;;;;;;4976192;28;20599;-76
2021/05/20 06:53:08;;;;;;;7.70;2.20;;;9.60;99.90;;;;;;4971382;28;20126;-76
2021/05/20 06:55:33;;;;;;;4.57;2.28;;;9.80;99.90;;;;;;4970400;28;20267;-76
2021/05/20 07:00:38;;;;;;;8.50;3.30;;;10.30;99.90;;;;;;4950811;28;20925;-76
2021/05/20 07:03:04;;;;;;;6.43;3.90;;;10.80;99.90;;;;;;4961933;28;20126;-77
2021/05/20 07:05:31;;;;;;;8.85;4.45;;;11.30;99.90;;;;;;4949943;28;20035;-76
2021/05/20 07:08:00;;;;;;;6.13;4.07;;;11.70;99.90;;;;;;4962019;28;20039;-76
2021/05/20 07:10:26;;;;;;;4.13;2.90;;;12.00;99.90;;;;;;4946175;28;20037;-77
2021/05/20 07:12:52;;;;;;;2.88;1.40;;;12.20;99.90;;;;;;4947759;28;20039;-77
2021/05/20 07:15:18;;;;;;;1.77;1.00;;;12.60;99.90;;;;;;4945467;28;20090;-76
2021/05/20 07:17:44;;;;;;;4.22;1.58;;;12.80;99.90;;;;;;4949128;28;20468;-77
2021/05/20 07:20:10;;;;;;;6.20;1.67;;;13.10;99.90;;;;;;4948216;28;20055;-76
2021/05/20 07:22:35;;;;;;;4.57;2.17;;;13.00;99.90;;;;;;4962348;28;20042;-77
2021/05/20 07:25:04;;;;;;;3.92;2.00;;;13.20;99.90;;;;;;4956548;28;20405;-77
2021/05/20 07:27:31;;;;;;;3.10;1.80;;;13.40;99.90;;;;;;4949455;28;20090;-77
2021/05/20 07:29:58;;;;;;;3.95;1.80;;;13.60;99.90;;;;;;4950661;28;20850;-76
2021/05/20 07:32:25;;;;;;;5.10;2.20;;;13.90;99.90;;;;;;4947481;28;20831;-77
2021/05/20 07:34:51;;;;;;;4.05;2.30;;;14.40;99.90;;;;;;4948054;28;20131;-76
2021/05/20 07:37:17;;;;;;;6.65;2.13;;;14.40;99.90;;;;;;4952925;28;20434;-76
2021/05/20 07:39:42;;;;;;;3.28;1.73;;;14.50;99.90;;;;;;4950191;28;20039;-76
2021/05/20 07:42:08;;;;;;;5.60;1.85;;;14.30;99.90;;;;;;4948137;28;20408;-77
2021/05/20 07:44:36;;;;;;;2.50;1.08;;;14.60;99.90;;;;;;4961867;28;20039;-76
2021/05/20 07:47:02;;;;;;;2.28;0.88;;;15.00;99.90;;;;;;4951763;28;20037;-77
2021/05/20 07:49:28;;;;;;;6.15;1.45;;;15.40;99.90;;;;;;4947142;28;20307;-77
2021/05/20 07:51:54;;;;;;;4.10;1.63;;;15.30;99.90;;;;;;4961016;28;20031;-77
2021/05/20 07:54:20;;;;;;;5.05;1.25;;;15.80;99.90;;;;;;4949846;28;20066;-76
2021/05/20 07:56:46;;;;;;;2.83;1.50;;;15.40;99.90;;;;;;4946739;28;20029;-77
2021/05/20 07:59:12;;;;;;;2.45;1.40;;;16.00;99.90;;;;;;4947598;28;20034;-76
2021/05/20 08:01:45;;;;;;;3.65;1.30;;;16.30;99.90;;;;;;4960292;28;20487;-76
2021/05/20 08:04:14;;;;;;;4.13;1.50;;;15.90;99.90;;;;;;4962691;28;20178;-77
2021/05/20 08:06:56;;;;;;;3.05;1.35;;;16.20;99.90;;;;;;4953541;28;20045;-76
2021/05/20 08:09:33;;;;;;;;;;;16.20;99.90;;;;;;4951055;28;20030;-77
2021/05/20 08:11:59;;;;;;;4.50;0.90;;;15.30;99.90;;;;;;4952592;28;19960;-76
2021/05/20 08:14:25;;;;;;;2.58;0.70;;;15.00;99.90;;;;;;4953734;28;20065;-77
2021/05/20 08:16:51;;;;;;;3.20;0.75;;;15.70;99.90;;;;;;4959239;28;22799;-77
2021/05/20 08:19:16;;;;;;;2.38;0.70;;;15.70;99.90;;;;;;4952417;28;20043;-76
2021/05/20 08:21:43;;;;;;;6.88;1.20;;;14.90;99.90;;;;;;4951830;28;20240;-77
2021/05/20 08:24:09;;;;;;;2.70;0.60;;;15.30;99.90;;;;;;4944242;28;20046;-76
2021/05/20 08:26:35;;;;;;;1.90;0.45;;;15.70;99.90;;;;;;4950019;28;21180;-76
2021/05/20 08:29:01;;;;;;;1.70;0.40;;;15.90;99.90;;;;;;4943842;28;20049;-76
2021/05/20 08:31:29;;;;;;;2.40;0.65;;;15.70;99.90;;;;;;4941633;28;20388;-77
2021/05/20 08:33:55;;;;;;;2.15;0.60;;;16.00;99.90;;;;;;4959265;28;20133;-77
2021/05/20 08:36:21;;;;;;;2.30;0.55;;;14.60;99.90;;;;;;4959381;28;20069;-77
2021/05/20 08:38:47;;;;;;;3.50;0.63;;;15.40;99.90;;;;;;4941029;28;20031;-76
2021/05/20 08:41:18;;;;;;;3.72;0.57;;;14.40;99.90;;;;;;4944247;28;20039;-76
2021/05/20 08:43:44;;;;;;;1.47;0.47;;;14.90;99.90;;;;;;4958977;28;20063;-76
2021/05/20 08:46:10;;;;;;;1.38;0.40;;;15.90;99.90;;;;;;4959005;28;20058;-76
2021/05/20 08:48:36;;;;;;;5.82;0.50;;;16.60;99.90;;;;;;4943439;28;20125;-77
2021/05/20 08:51:03;;;;;;;2.85;0.35;;;16.30;99.90;;;;;;4949416;28;20035;-76
2021/05/20 08:53:29;;;;;;;3.80;0.50;;;15.80;99.90;;;;;;4959359;28;20073;-76
2021/05/20 08:55:55;;;;;;;1.30;0.40;;;16.50;99.90;;;;;;4959440;28;20043;-76
2021/05/20 08:58:25;;;;;;;2.63;0.60;;;17.10;99.90;;;;;;4942370;28;20342;-76
2021/05/20 09:00:51;;;;;;;1.55;0.35;;;17.10;99.90;;;;;;4950906;28;20041;-76
2021/05/20 09:03:17;;;;;;;5.55;0.40;;;17.40;99.90;;;;;;4943582;28;20466;-76
2021/05/20 09:05:43;;;;;;;2.33;0.40;;;16.60;99.90;;;;;;4950834;28;20042;-76
2021/05/20 09:08:13;;;;;;;2.30;0.50;;;15.60;99.90;;;;;;4951054;28;20130;-76
2021/05/20 09:10:41;;;;;;;2.05;0.52;;;15.20;99.90;;;;;;4956780;28;20527;-76
2021/05/20 09:13:09;;;;;;;1.40;0.43;;;14.80;99.90;;;;;;4954326;28;20495;-76
2021/05/20 09:15:40;;;;;;;1.58;0.30;;;14.50;99.90;;;;;;4956392;28;20035;-76
2021/05/20 09:18:24;;;;;;;1.88;0.40;;;14.30;99.90;;;;;;4956663;28;20303;-76
2021/05/20 09:20:58;;;;;;;1.35;0.35;;;14.40;99.90;;;;;;4953507;28;20050;-76
2021/05/20 09:23:26;;;;;;;1.63;0.40;;;14.50;99.90;;;;;;4950605;28;20037;-76
2021/05/20 09:26:01;;;;;;;0.93;0.30;;;14.80;99.90;;;;;;4955456;28;20034;-76
2021/05/20 09:28:41;;;;;;;2.03;0.38;;;15.30;99.90;;;;;;4961544;28;20390;-76
2021/05/20 09:31:07;;;;;;;2.47;0.50;;;15.60;99.90;;;;;;4971255;28;20031;-76
2021/05/20 09:33:33;;;;;;;1.13;0.32;;;15.40;99.90;;;;;;4951308;28;20034;-76
2021/05/20 09:35:59;;;;;;;1.88;0.30;;;15.30;99.90;;;;;;4949041;28;20090;-76
2021/05/20 09:38:27;;;;;;;1.27;0.40;;;15.60;99.90;;;;;;4951888;28;20042;-76
2021/05/20 09:41:04;;;;;;;2.00;0.40;;;16.10;99.90;;;;;;4954035;28;20080;-75
2021/05/20 09:43:35;;;;;;;1.58;0.40;;;15.70;99.90;;;;;;4954139;28;20048;-76
2021/05/20 09:46:13;;;;;;;0.85;0.30;;;15.40;99.90;;;;;;4957211;28;20835;-76
2021/05/20 09:48:47;;;;;;;2.53;0.40;;;15.20;99.90;;;;;;4958700;28;20595;-75
2021/05/20 09:51:29;;;;;;;2.03;0.30;;;15.30;99.90;;;;;;4967848;28;20437;-76
2021/05/20 09:53:56;;;;;;;1.75;0.30;;;15.40;99.90;;;;;;4972558;28;20397;-76
2021/05/20 09:56:38;;;;;;;1.13;0.30;;;15.50;99.90;;;;;;4949951;28;20035;-76
2021/05/20 09:59:05;;;;;;;1.55;0.45;;;15.60;99.90;;;;;;4951337;28;20401;-76
2021/05/20 10:01:31;;;;;;;0.68;0.30;;;16.60;99.90;;;;;;4956861;28;20121;-76
2021/05/20 10:03:57;;;;;;;1.92;0.40;;;16.30;99.90;;;;;;4951706;28;20169;-76
2021/05/20 10:06:42;;;;;;;6.38;0.90;;;15.80;99.90;;;;;;4948437;28;20027;-76
2021/05/20 10:09:13;;;;;;;1.77;0.45;;;15.70;99.90;;;;;;4952585;28;20042;-76
2021/05/20 10:11:40;;;;;;;1.45;0.40;;;15.20;99.90;;;;;;4956180;28;20487;-76
2021/05/20 10:14:06;;;;;;;2.72;0.30;;;15.90;99.90;;;;;;4950325;28;20042;-76
2021/05/20 10:16:33;;;;;;;4.53;0.30;;;15.80;99.90;;;;;;4951771;28;20027;-76
2021/05/20 10:18:59;;;;;;;1.20;0.30;;;15.70;99.90;;;;;;4953638;28;20540;-76
2021/05/20 10:21:26;;;;;;;1.33;0.38;;;15.50;99.90;;;;;;4950208;28;20477;-76
2021/05/20 10:23:52;;;;;;;1.08;0.30;;;15.70;99.90;;;;;;4967422;28;20043;-76
2021/05/20 10:26:19;;;;;;;1.65;0.30;;;16.00;99.90;;;;;;4954155;28;20077;-76
2021/05/20 10:28:45;;;;;;;1.73;0.38;;;15.90;99.90;;;;;;4958401;28;20057;-76
2021/05/20 10:31:13;;;;;;;1.77;0.30;;;16.20;99.90;;;;;;4952719;28;20033;-76
2021/05/20 10:33:39;;;;;;;2.83;0.55;;;16.60;99.90;;;;;;4966300;28;20067;-76
2021/05/20 10:36:05;;;;;;;1.77;0.50;;;16.80;99.90;;;;;;4956483;28;20042;-76
2021/05/20 10:38:34;;;;;;;3.13;0.50;;;16.50;99.90;;;;;;4964345;28;20392;-76
2021/05/20 10:41:17;;;;;;;1.13;0.22;;;16.60;99.90;;;;;;4966206;28;20041;-76
2021/05/20 10:43:45;;;;;;;2.33;0.30;;;16.70;99.90;;;;;;4954463;28;20039;-76
2021/05/20 10:46:15;;;;;;;1.00;0.28;;;16.50;99.90;;;;;;4958784;28;20038;-76
2021/05/20 10:48:49;;;;;;;2.17;0.30;;;16.70;99.90;;;;;;4955419;28;20066;-76
2021/05/20 10:51:21;;;;;;;1.20;0.30;;;17.40;99.90;;;;;;4969193;28;20070;-76
2021/05/20 10:53:52;;;;;;;0.50;0.20;;;17.20;99.90;;;;;;4967472;28;20035;-77
2021/05/20 10:56:21;;;;;;;1.25;0.30;;;17.90;99.90;;;;;;4967657;28;20026;-76
2021/05/20 10:58:47;;;;;;;2.03;0.30;;;18.30;99.90;;;;;;4973882;28;20503;-76
2021/05/20 11:01:26;;;;;;;1.73;0.40;;;17.90;98.80;;;;;;4958712;28;20046;-76
2021/05/20 11:03:59;;;;;;;2.65;0.47;;;17.40;98.50;;;;;;4954854;28;20375;-76
2021/05/20 11:06:37;;;;;;;0.77;0.20;;;17.70;99.60;;;;;;4961223;28;20396;-76
2021/05/20 11:09:09;;;;;;;0.95;0.13;;;17.70;99.00;;;;;;4962175;28;20051;-76
2021/05/20 11:11:35;;;;;;;0.60;0.17;;;17.30;94.40;;;;;;4951481;28;20344;-76
2021/05/20 11:14:11;;;;;;;1.35;0.50;;;17.10;96.20;;;;;;4949918;28;20086;-76
2021/05/20 11:16:37;;;;;;;2.33;0.30;;;17.50;98.70;;;;;;4957539;28;20030;-76
2021/05/20 11:21:59;;;;;;;1.17;0.20;;;18.20;96.00;;;;;;4959241;28;20045;-76
2021/05/20 11:24:26;;;;;;;0.32;0.10;;;18.10;96.60;;;;;;4973812;28;20650;-76
2021/05/20 11:26:57;;;;;;;1.05;0.20;;;17.20;95.70;;;;;;4955129;28;20345;-76
2021/05/20 11:29:33;;;;;;;2.03;0.30;;;17.40;96.20;;;;;;4955270;28;20090;-76
2021/05/20 11:37:28;;;;;;;1.92;0.20;;;17.10;97.10;;;;;;4954399;28;20044;-76
2021/05/20 11:39:53;;;;;;;1.75;0.10;;;17.10;94.60;;;;;;4957105;28;20384;-75
2021/05/20 11:42:27;;;;;;;1.55;0.20;;;17.50;93.60;;;;;;4946965;28;20042;-75
2021/05/20 11:44:53;;;;;;;1.25;0.32;;;17.60;94.80;;;;;;4955346;28;20348;-75
2021/05/20 11:47:21;;;;;;;1.27;0.20;;;17.80;97.20;;;;;;4955686;28;20038;-76
2021/05/20 11:49:47;;;;;;;0.82;0.10;;;17.30;95.10;;;;;;4968859;28;20347;-75
2021/05/20 11:52:13;;;;;;;2.35;0.20;;;17.60;93.90;;;;;;4968900;28;20049;-75
2021/05/20 11:54:45;;;;;;;1.23;0.30;;;17.90;96.80;;;;;;4948643;28;20375;-76
2021/05/20 11:57:12;;;;;;;1.08;0.20;;;17.90;96.70;;;;;;4972398;28;20054;-75
2021/05/20 11:59:42;;;;;;;0.70;0.20;;;17.20;92.10;;;;;;4956888;28;20050;-76
2021/05/20 12:02:11;;;;;;;0.90;0.20;;;17.40;93.60;;;;;;4959349;28;20038;-75
2021/05/20 12:04:37;;;;;;;0.60;0.20;;;17.40;94.10;;;;;;4970111;28;20043;-76
2021/05/20 12:07:03;;;;;;;0.80;0.22;;;17.50;94.50;;;;;;4957762;28;20031;-76
2021/05/20 12:09:29;;;;;;;1.17;0.20;;;17.40;89.60;;;;;;4964424;28;20077;-75
2021/05/20 12:11:55;;;;;;;1.13;0.20;;;17.50;92.30;;;;;;4969226;28;20062;-76
2021/05/20 12:14:25;;;;;;;2.47;0.20;;;17.70;93.30;;;;;;4970859;28;20035;-76
2021/05/20 12:17:21;;;;;;;0.82;0.10;;;17.70;93.30;;;;;;4968612;28;20046;-75
2021/05/20 12:19:48;;;;;;;0.47;0.10;;;17.90;92.60;;;;;;4956283;28;20046;-75
2021/05/20 12:22:16;;;;;;;1.17;0.20;;;18.10;91.30;;;;;;4955153;28;20170;-75
2021/05/20 12:24:44;;;;;;;0.93;0.20;;;18.20;91.70;;;;;;4970674;28;20047;-76
2021/05/20 12:27:13;;;;;;;2.05;0.40;;;17.70;88.40;;;;;;4959772;28;20045;-76
2021/05/20 12:29:41;;;;;;;0.95;0.20;;;17.90;93.20;;;;;;4951753;28;20050;-75
2021/05/20 12:32:26;;;;;;;2.58;0.20;;;17.30;92.00;;;;;;4958414;28;20086;-76
2021/05/20 12:35:15;;;;;;;0.57;0.10;;;17.30;90.70;;;;;;4971414;28;20042;-76
2021/05/20 12:38:09;;;;;;;1.10;0.20;;;17.70;91.80;;;;;;4968435;28;20064;-75
2021/05/20 12:40:39;;;;;;;0.75;0.15;;;17.50;90.90;;;;;;4968750;28;20412;-75
2021/05/20 12:43:12;;;;;;;0.77;0.20;;;17.30;91.30;;;;;;4956186;28;20062;-76
2021/05/20 12:45:42;;;;;;;0.77;0.17;;;17.70;91.70;;;;;;4951275;28;20042;-75
2021/05/20 12:48:26;;;;;;;0.75;0.10;;;17.70;90.00;;;;;;4969547;28;20079;-75
2021/05/20 12:50:54;;;;;;;1.42;0.30;;;17.30;87.80;;;;;;4974796;28;20039;-76
2021/05/20 12:53:43;;;;;;;1.90;0.20;;;17.50;89.20;;;;;;4952508;28;20039;-75
2021/05/20 12:56:25;;;;;;;1.08;0.20;;;17.80;92.30;;;;;;4970706;28;20038;-76
2021/05/20 12:58:59;;;;;;;0.40;0.13;;;18.00;90.40;;;;;;4969868;28;20038;-76
2021/05/20 13:01:27;;;;;;;0.82;0.15;;;18.20;88.70;;;;;;4952921;28;20158;-76
2021/05/20 13:03:56;;;;;;;1.05;0.25;;;18.00;88.50;;;;;;4968653;28;20456;-76
2021/05/20 13:06:28;;;;;;;2.45;0.22;;;17.90;86.40;;;;;;4950476;28;20046;-75
2021/05/20 13:09:11;;;;;;;2.03;0.20;;;18.10;90.20;;;;;;4955078;28;20074;-76
2021/05/20 13:11:41;;;;;;;1.60;0.20;;;18.30;92.00;;;;;;4951092;28;20142;-75